sensor_id;sensor_type;location;lat;lon;timestamp;temperature;humidity
3275;DHT22;1649;53.672;10.064;2023-05-07T00:00:32;8.60;99.90
3275;DHT22;1649;53.672;10.064;2023-05-07T00:02:59;8.60;99.90
3275;DHT22;1649;53.672;10.064;2023-05-07T00:05:24;8.60;99.90
3275;DHT22;1649;53.672;10.064;2023-05-07T00:07:50;8.60;99.90
3275;DHT22;1649;53.672;10.064;2023-05-07T00:10:18;8.60;99.90
3275;DHT22;1649;53.672;10.064;2023-05-07T00:12:43;8.60;99.90
3275;DHT22;1649;53.672;10.064;2023-05-07T00:15:09;8.60;99.90
3275;DHT22;1649;53.672;10.064;2023-05-07T00:17:35;8.70;99.90
3275;DHT22;1649;53.672;10.064;2023-05-07T00:20:00;8.70;99.90
3275;DHT22;1649;53.672;10.064;2023-05-07T00:22:26;8.60;99.90
3275;DHT22;1649;53.672;10.064;2023-05-07T00:24:51;8.60;99.90
3275;DHT22;1649;53.672;10.064;2023-05-07T00:27:17;8.60;99.90
3275;DHT22;1649;53.672;10.064;2023-05-07T00:29:42;8.60;99.90
3275;DHT22;1649;53.672;10.064;2023-05-07T00:32:08;8.60;99.90
3275;DHT22;1649;53.672;10.064;2023-05-07T00:34:34;8.60;99.90
3275;DHT22;1649;53.672;10.064;2023-05-07T00:37:00;8.60;99.90
3275;DHT22;1649;53.672;10.064;2023-05-07T00:39:26;8.60;99.90
3275;DHT22;1649;53.672;10.064;2023-05-07T00:41:51;8.60;99.90
3275;DHT22;1649;53.672;10.064;2023-05-07T00:44:17;8.60;99.90
3275;DHT22;1649;53.672;10.064;2023-05-07T00:46:43;8.60;99.90
3275;DHT22;1649;53.672;10.064;2023-05-07T00:49:10;8.60;99.90
3275;DHT22;1649;53.672;10.064;2023-05-07T00:51:36;8.60;99.90
3275;DHT22;1649;53.672;10.064;2023-05-07T00:54:02;8.60;99.90
3275;DHT22;1649;53.672;10.064;2023-05-07T00:56:28;8.60;99.90
3275;DHT22;1649;53.672;10.064;2023-05-07T00:58:54;8.60;99.90
3275;DHT22;1649;53.672;10.064;2023-05-07T01:01:20;8.60;99.90
3275;DHT22;1649;53.672;10.064;2023-05-07T01:03:45;8.60;99.90
3275;DHT22;1649;53.672;10.064;2023-05-07T01:06:12;8.60;99.90
3275;DHT22;1649;53.672;10.064;2023-05-07T01:08:39;8.60;99.90
3275;DHT22;1649;53.672;10.064;2023-05-07T01:11:07;8.60;99.90
3275;DHT22;1649;53.672;10.064;2023-05-07T01:13:34;8.60;99.90
3275;DHT22;1649;53.672;10.064;2023-05-07T01:16:00;8.50;99.90
3275;DHT22;1649;53.672;10.064;2023-05-07T01:18:25;8.50;99.90
3275;DHT22;1649;53.672;10.064;2023-05-07T01:20:52;8.60;99.90
3275;DHT22;1649;53.672;10.064;2023-05-07T01:23:18;8.60;99.90
3275;DHT22;1649;53.672;10.064;2023-05-07T01:25:50;8.60;99.90
3275;DHT22;1649;53.672;10.064;2023-05-07T01:28:15;8.60;99.90
3275;DHT22;1649;53.672;10.064;2023-05-07T01:30:49;8.50;99.90
3275;DHT22;1649;53.672;10.064;2023-05-07T01:33:19;8.60;99.90
3275;DHT22;1649;53.672;10.064;2023-05-07T01:35:48;8.60;99.90
3275;DHT22;1649;53.672;10.064;2023-05-07T01:38:14;8.60;99.90
3275;DHT22;1649;53.672;10.064;2023-05-07T01:40:40;8.60;99.90
3275;DHT22;1649;53.672;10.064;2023-05-07T01:43:06;8.60;99.90
3275;DHT22;1649;53.672;10.064;2023-05-07T01:45:32;8.60;99.90
3275;DHT22;1649;53.672;10.064;2023-05-07T01:47:59;8.50;99.90
3275;DHT22;1649;53.672;10.064;2023-05-07T01:50:25;8.50;99.90
3275;DHT22;1649;53.672;10.064;2023-05-07T01:52:51;8.50;99.90
3275;DHT22;1649;53.672;10.064;2023-05-07T01:55:17;8.50;99.90
3275;DHT22;1649;53.672;10.064;2023-05-07T01:57:42;8.50;99.90
3275;DHT22;1649;53.672;10.064;2023-05-07T02:00:08;8.50;99.90
3275;DHT22;1649;53.672;10.064;2023-05-07T02:02:34;8.50;99.90
3275;DHT22;1649;53.672;10.064;2023-05-07T02:05:00;8.50;99.90
3275;DHT22;1649;53.672;10.064;2023-05-07T02:07:29;8.50;99.90
3275;DHT22;1649;53.672;10.064;2023-05-07T02:09:54;8.50;99.90
3275;DHT22;1649;53.672;10.064;2023-05-07T02:12:23;8.50;99.90
3275;DHT22;1649;53.672;10.064;2023-05-07T02:14:49;8.50;99.90
3275;DHT22;1649;53.672;10.064;2023-05-07T02:17:14;8.50;99.90
3275;DHT22;1649;53.672;10.064;2023-05-07T02:19:40;8.50;99.90
3275;DHT22;1649;53.672;10.064;2023-05-07T02:22:06;8.50;99.90
3275;DHT22;1649;53.672;10.064;2023-05-07T02:24:32;8.50;99.90
3275;DHT22;1649;53.672;10.064;2023-05-07T02:26:57;8.50;99.90
3275;DHT22;1649;53.672;10.064;2023-05-07T02:29:23;8.50;99.90
3275;DHT22;1649;53.672;10.064;2023-05-07T02:31:48;8.40;99.90
3275;DHT22;1649;53.672;10.064;2023-05-07T02:34:18;8.40;99.90
3275;DHT22;1649;53.672;10.064;2023-05-07T02:36:43;8.40;99.90
3275;DHT22;1649;53.672;10.064;2023-05-07T02:39:09;8.50;99.90
3275;DHT22;1649;53.672;10.064;2023-05-07T02:41:34;8.40;99.90
3275;DHT22;1649;53.672;10.064;2023-05-07T02:44:00;8.40;99.90
3275;DHT22;1649;53.672;10.064;2023-05-07T02:46:25;8.40;99.90
3275;DHT22;1649;53.672;10.064;2023-05-07T02:48:51;8.50;99.90
3275;DHT22;1649;53.672;10.064;2023-05-07T02:51:20;8.40;99.90
3275;DHT22;1649;53.672;10.064;2023-05-07T02:53:46;8.50;99.90
3275;DHT22;1649;53.672;10.064;2023-05-07T02:56:12;8.50;99.90
3275;DHT22;1649;53.672;10.064;2023-05-07T02:58:37;8.50;99.90
3275;DHT22;1649;53.672;10.064;2023-05-07T03:01:05;8.40;99.90
3275;DHT22;1649;53.672;10.064;2023-05-07T03:03:30;8.40;99.90
3275;DHT22;1649;53.672;10.064;2023-05-07T03:05:56;8.40;99.90
3275;DHT22;1649;53.672;10.064;2023-05-07T03:08:22;8.40;99.90
3275;DHT22;1649;53.672;10.064;2023-05-07T03:10:47;8.30;99.90
3275;DHT22;1649;53.672;10.064;2023-05-07T03:13:13;8.30;99.90
3275;DHT22;1649;53.672;10.064;2023-05-07T03:15:38;8.30;99.90
3275;DHT22;1649;53.672;10.064;2023-05-07T03:18:04;8.30;99.90
3275;DHT22;1649;53.672;10.064;2023-05-07T03:20:29;8.40;99.90
3275;DHT22;1649;53.672;10.064;2023-05-07T03:22:55;8.40;99.90
3275;DHT22;1649;53.672;10.064;2023-05-07T03:25:20;8.40;99.90
3275;DHT22;1649;53.672;10.064;2023-05-07T03:27:46;8.40;99.90
3275;DHT22;1649;53.672;10.064;2023-05-07T03:30:12;8.30;99.90
3275;DHT22;1649;53.672;10.064;2023-05-07T03:32:37;8.40;99.90
3275;DHT22;1649;53.672;10.064;2023-05-07T03:35:03;8.40;99.90
3275;DHT22;1649;53.672;10.064;2023-05-07T03:37:29;8.40;99.90
3275;DHT22;1649;53.672;10.064;2023-05-07T03:39:54;8.40;99.90
3275;DHT22;1649;53.672;10.064;2023-05-07T03:42:20;8.40;99.90
3275;DHT22;1649;53.672;10.064;2023-05-07T03:44:45;8.40;99.90
3275;DHT22;1649;53.672;10.064;2023-05-07T03:47:11;8.40;99.90
3275;DHT22;1649;53.672;10.064;2023-05-07T03:49:38;8.40;99.90
3275;DHT22;1649;53.672;10.064;2023-05-07T03:52:04;8.40;99.90
3275;DHT22;1649;53.672;10.064;2023-05-07T03:54:30;8.40;99.90
3275;DHT22;1649;53.672;10.064;2023-05-07T03:56:56;8.40;99.90
3275;DHT22;1649;53.672;10.064;2023-05-07T03:59:22;8.40;99.90
3275;DHT22;1649;53.672;10.064;2023-05-07T04:01:47;8.40;99.90
3275;DHT22;1649;53.672;10.064;2023-05-07T04:04:14;8.40;99.90
3275;DHT22;1649;53.672;10.064;2023-05-07T04:06:40;8.50;99.90
3275;DHT22;1649;53.672;10.064;2023-05-07T04:09:06;8.50;99.90
3275;DHT22;1649;53.672;10.064;2023-05-07T04:11:32;8.50;99.90
3275;DHT22;1649;53.672;10.064;2023-05-07T04:13:57;8.50;99.90
3275;DHT22;1649;53.672;10.064;2023-05-07T04:16:23;8.50;99.90
3275;DHT22;1649;53.672;10.064;2023-05-07T04:18:48;8.50;99.90
3275;DHT22;1649;53.672;10.064;2023-05-07T04:21:18;8.50;99.90
3275;DHT22;1649;53.672;10.064;2023-05-07T04:23:44;8.50;99.90
3275;DHT22;1649;53.672;10.064;2023-05-07T04:26:10;8.50;99.90
3275;DHT22;1649;53.672;10.064;2023-05-07T04:28:35;8.50;99.90
3275;DHT22;1649;53.672;10.064;2023-05-07T04:31:01;8.50;99.90
3275;DHT22;1649;53.672;10.064;2023-05-07T04:33:27;8.50;99.90
3275;DHT22;1649;53.672;10.064;2023-05-07T04:35:52;8.50;99.90
3275;DHT22;1649;53.672;10.064;2023-05-07T04:38:18;8.50;99.90
3275;DHT22;1649;53.672;10.064;2023-05-07T04:40:44;8.50;99.90
3275;DHT22;1649;53.672;10.064;2023-05-07T04:43:09;8.50;99.90
3275;DHT22;1649;53.672;10.064;2023-05-07T04:45:35;8.50;99.90
3275;DHT22;1649;53.672;10.064;2023-05-07T04:48:01;8.50;99.90
3275;DHT22;1649;53.672;10.064;2023-05-07T04:50:27;8.50;99.90
3275;DHT22;1649;53.672;10.064;2023-05-07T04:52:52;8.50;99.90
3275;DHT22;1649;53.672;10.064;2023-05-07T04:55:18;8.50;99.90
3275;DHT22;1649;53.672;10.064;2023-05-07T04:57:43;8.60;99.90
3275;DHT22;1649;53.672;10.064;2023-05-07T05:00:09;8.60;99.90
3275;DHT22;1649;53.672;10.064;2023-05-07T05:02:35;8.60;99.90
3275;DHT22;1649;53.672;10.064;2023-05-07T05:05:01;8.60;99.90
3275;DHT22;1649;53.672;10.064;2023-05-07T05:07:29;8.60;99.90
3275;DHT22;1649;53.672;10.064;2023-05-07T05:09:54;8.60;99.90
3275;DHT22;1649;53.672;10.064;2023-05-07T05:12:20;8.60;99.90
3275;DHT22;1649;53.672;10.064;2023-05-07T05:14:46;8.70;99.90
3275;DHT22;1649;53.672;10.064;2023-05-07T05:17:12;8.60;99.90
3275;DHT22;1649;53.672;10.064;2023-05-07T05:19:37;8.70;99.90
3275;DHT22;1649;53.672;10.064;2023-05-07T05:22:03;8.60;99.90
3275;DHT22;1649;53.672;10.064;2023-05-07T05:24:30;8.70;99.90
3275;DHT22;1649;53.672;10.064;2023-05-07T05:26:55;8.70;99.90
3275;DHT22;1649;53.672;10.064;2023-05-07T05:29:21;8.80;99.90
3275;DHT22;1649;53.672;10.064;2023-05-07T05:31:46;8.80;99.90
3275;DHT22;1649;53.672;10.064;2023-05-07T05:34:12;8.80;99.90
3275;DHT22;1649;53.672;10.064;2023-05-07T05:36:38;8.90;99.90
3275;DHT22;1649;53.672;10.064;2023-05-07T05:39:03;8.90;99.90
3275;DHT22;1649;53.672;10.064;2023-05-07T05:41:29;8.90;99.90
3275;DHT22;1649;53.672;10.064;2023-05-07T05:43:55;9.00;99.90
3275;DHT22;1649;53.672;10.064;2023-05-07T05:46:21;9.00;99.90
3275;DHT22;1649;53.672;10.064;2023-05-07T05:48:46;9.00;99.90
3275;DHT22;1649;53.672;10.064;2023-05-07T05:51:12;9.10;99.90
3275;DHT22;1649;53.672;10.064;2023-05-07T05:53:37;9.10;99.90
3275;DHT22;1649;53.672;10.064;2023-05-07T05:56:03;9.20;99.90
3275;DHT22;1649;53.672;10.064;2023-05-07T05:58:29;9.20;99.90
3275;DHT22;1649;53.672;10.064;2023-05-07T06:00:54;9.20;99.90
3275;DHT22;1649;53.672;10.064;2023-05-07T06:03:20;9.30;99.90
3275;DHT22;1649;53.672;10.064;2023-05-07T06:05:45;9.30;99.90
3275;DHT22;1649;53.672;10.064;2023-05-07T06:08:11;9.30;99.90
3275;DHT22;1649;53.672;10.064;2023-05-07T06:10:37;9.30;99.90
3275;DHT22;1649;53.672;10.064;2023-05-07T06:13:03;9.40;99.90
3275;DHT22;1649;53.672;10.064;2023-05-07T06:15:28;9.40;99.90
3275;DHT22;1649;53.672;10.064;2023-05-07T06:17:53;9.50;99.90
3275;DHT22;1649;53.672;10.064;2023-05-07T06:20:21;9.50;99.90
3275;DHT22;1649;53.672;10.064;2023-05-07T06:22:46;9.50;99.90
3275;DHT22;1649;53.672;10.064;2023-05-07T06:25:12;9.40;99.90
3275;DHT22;1649;53.672;10.064;2023-05-07T06:27:37;9.40;99.90
3275;DHT22;1649;53.672;10.064;2023-05-07T06:30:05;9.50;99.90
3275;DHT22;1649;53.672;10.064;2023-05-07T06:32:31;9.50;99.90
3275;DHT22;1649;53.672;10.064;2023-05-07T06:34:56;9.50;99.90
3275;DHT22;1649;53.672;10.064;2023-05-07T06:37:22;9.60;99.90
3275;DHT22;1649;53.672;10.064;2023-05-07T06:39:47;9.60;99.90
3275;DHT22;1649;53.672;10.064;2023-05-07T06:42:13;9.60;99.90
3275;DHT22;1649;53.672;10.064;2023-05-07T06:44:38;9.60;99.90
3275;DHT22;1649;53.672;10.064;2023-05-07T06:47:04;9.60;99.90
3275;DHT22;1649;53.672;10.064;2023-05-07T06:49:30;9.60;99.90
3275;DHT22;1649;53.672;10.064;2023-05-07T06:51:56;9.60;99.90
3275;DHT22;1649;53.672;10.064;2023-05-07T06:54:22;9.70;99.90
3275;DHT22;1649;53.672;10.064;2023-05-07T06:56:48;9.70;99.90
3275;DHT22;1649;53.672;10.064;2023-05-07T06:59:13;9.70;99.90
3275;DHT22;1649;53.672;10.064;2023-05-07T07:01:39;9.80;99.90
3275;DHT22;1649;53.672;10.064;2023-05-07T07:04:04;9.80;99.90
3275;DHT22;1649;53.672;10.064;2023-05-07T07:06:30;9.90;99.90
3275;DHT22;1649;53.672;10.064;2023-05-07T07:08:57;9.90;99.90
3275;DHT22;1649;53.672;10.064;2023-05-07T07:11:23;9.90;99.90
3275;DHT22;1649;53.672;10.064;2023-05-07T07:13:48;9.90;99.90
3275;DHT22;1649;53.672;10.064;2023-05-07T07:16:14;10.10;99.90
3275;DHT22;1649;53.672;10.064;2023-05-07T07:18:39;10.10;99.90
3275;DHT22;1649;53.672;10.064;2023-05-07T07:21:05;10.10;99.90
3275;DHT22;1649;53.672;10.064;2023-05-07T07:23:30;10.10;99.90
3275;DHT22;1649;53.672;10.064;2023-05-07T07:25:56;10.20;99.90
3275;DHT22;1649;53.672;10.064;2023-05-07T07:28:21;10.20;99.90
3275;DHT22;1649;53.672;10.064;2023-05-07T07:30:47;10.20;99.90
3275;DHT22;1649;53.672;10.064;2023-05-07T07:33:13;10.30;99.90
3275;DHT22;1649;53.672;10.064;2023-05-07T07:35:38;10.30;99.90
3275;DHT22;1649;53.672;10.064;2023-05-07T07:38:04;10.30;99.90
3275;DHT22;1649;53.672;10.064;2023-05-07T07:40:29;10.40;99.90
3275;DHT22;1649;53.672;10.064;2023-05-07T07:42:56;10.40;99.90
3275;DHT22;1649;53.672;10.064;2023-05-07T07:45:21;10.50;99.90
3275;DHT22;1649;53.672;10.064;2023-05-07T07:47:47;10.60;99.90
3275;DHT22;1649;53.672;10.064;2023-05-07T07:50:12;10.60;99.90
3275;DHT22;1649;53.672;10.064;2023-05-07T07:52:38;10.60;99.90
3275;DHT22;1649;53.672;10.064;2023-05-07T07:55:04;10.70;99.90
3275;DHT22;1649;53.672;10.064;2023-05-07T07:57:30;10.70;99.90
3275;DHT22;1649;53.672;10.064;2023-05-07T07:59:55;10.60;99.90
3275;DHT22;1649;53.672;10.064;2023-05-07T08:02:21;10.60;99.90
3275;DHT22;1649;53.672;10.064;2023-05-07T08:04:46;10.50;99.90
3275;DHT22;1649;53.672;10.064;2023-05-07T08:07:12;10.50;99.90
3275;DHT22;1649;53.672;10.064;2023-05-07T08:09:38;10.50;99.90
3275;DHT22;1649;53.672;10.064;2023-05-07T08:12:05;10.50;99.90
3275;DHT22;1649;53.672;10.064;2023-05-07T08:14:31;10.50;99.90
3275;DHT22;1649;53.672;10.064;2023-05-07T08:16:56;10.50;99.90
3275;DHT22;1649;53.672;10.064;2023-05-07T08:19:22;10.60;99.90
3275;DHT22;1649;53.672;10.064;2023-05-07T08:21:48;10.60;99.90
3275;DHT22;1649;53.672;10.064;2023-05-07T08:24:14;10.60;99.90
3275;DHT22;1649;53.672;10.064;2023-05-07T08:26:40;10.70;99.90
3275;DHT22;1649;53.672;10.064;2023-05-07T08:29:06;10.80;99.90
3275;DHT22;1649;53.672;10.064;2023-05-07T08:31:31;10.80;99.90
3275;DHT22;1649;53.672;10.064;2023-05-07T08:33:57;10.90;99.90
3275;DHT22;1649;53.672;10.064;2023-05-07T08:36:23;11.10;99.90
3275;DHT22;1649;53.672;10.064;2023-05-07T08:38:49;11.10;99.90
3275;DHT22;1649;53.672;10.064;2023-05-07T08:41:15;11.20;99.90
3275;DHT22;1649;53.672;10.064;2023-05-07T08:43:41;11.40;99.90
3275;DHT22;1649;53.672;10.064;2023-05-07T08:46:09;11.40;99.90
3275;DHT22;1649;53.672;10.064;2023-05-07T08:48:35;11.30;99.90
3275;DHT22;1649;53.672;10.064;2023-05-07T08:51:01;11.30;99.90
3275;DHT22;1649;53.672;10.064;2023-05-07T08:53:27;11.20;99.90
3275;DHT22;1649;53.672;10.064;2023-05-07T08:55:53;11.20;99.90
3275;DHT22;1649;53.672;10.064;2023-05-07T08:58:19;11.10;99.90
3275;DHT22;1649;53.672;10.064;2023-05-07T09:00:44;11.00;99.90
3275;DHT22;1649;53.672;10.064;2023-05-07T09:03:10;11.00;99.90
3275;DHT22;1649;53.672;10.064;2023-05-07T09:05:39;10.90;99.90
3275;DHT22;1649;53.672;10.064;2023-05-07T09:08:06;11.10;99.90
3275;DHT22;1649;53.672;10.064;2023-05-07T09:10:35;11.20;99.90
3275;DHT22;1649;53.672;10.064;2023-05-07T09:13:02;11.20;99.90
3275;DHT22;1649;53.672;10.064;2023-05-07T09:15:28;11.20;99.90
3275;DHT22;1649;53.672;10.064;2023-05-07T09:17:54;11.20;99.90
3275;DHT22;1649;53.672;10.064;2023-05-07T09:20:19;11.20;99.90
3275;DHT22;1649;53.672;10.064;2023-05-07T09:22:45;11.00;99.90
3275;DHT22;1649;53.672;10.064;2023-05-07T09:25:11;11.10;99.90
3275;DHT22;1649;53.672;10.064;2023-05-07T09:27:37;11.20;99.90
3275;DHT22;1649;53.672;10.064;2023-05-07T09:30:06;11.30;99.90
3275;DHT22;1649;53.672;10.064;2023-05-07T09:32:35;11.40;99.90
3275;DHT22;1649;53.672;10.064;2023-05-07T09:35:01;11.40;99.90
3275;DHT22;1649;53.672;10.064;2023-05-07T09:37:28;11.50;99.90
3275;DHT22;1649;53.672;10.064;2023-05-07T09:39:55;11.60;99.90
3275;DHT22;1649;53.672;10.064;2023-05-07T09:42:24;11.70;99.90
3275;DHT22;1649;53.672;10.064;2023-05-07T09:44:53;11.80;99.90
3275;DHT22;1649;53.672;10.064;2023-05-07T09:47:19;11.90;99.90
3275;DHT22;1649;53.672;10.064;2023-05-07T09:49:47;12.20;99.90
3275;DHT22;1649;53.672;10.064;2023-05-07T09:52:13;12.30;99.90
3275;DHT22;1649;53.672;10.064;2023-05-07T09:54:40;12.20;99.90
3275;DHT22;1649;53.672;10.064;2023-05-07T09:57:10;12.10;99.90
3275;DHT22;1649;53.672;10.064;2023-05-07T09:59:37;12.10;99.90
3275;DHT22;1649;53.672;10.064;2023-05-07T10:02:04;11.90;99.90
3275;DHT22;1649;53.672;10.064;2023-05-07T10:04:31;12.00;99.90
3275;DHT22;1649;53.672;10.064;2023-05-07T10:06:57;12.00;99.90
3275;DHT22;1649;53.672;10.064;2023-05-07T10:09:25;12.00;99.90
3275;DHT22;1649;53.672;10.064;2023-05-07T10:11:51;12.10;99.90
3275;DHT22;1649;53.672;10.064;2023-05-07T10:14:17;12.30;99.90
3275;DHT22;1649;53.672;10.064;2023-05-07T10:16:44;12.50;99.90
3275;DHT22;1649;53.672;10.064;2023-05-07T10:19:11;12.50;99.90
3275;DHT22;1649;53.672;10.064;2023-05-07T10:21:48;12.40;99.90
3275;DHT22;1649;53.672;10.064;2023-05-07T10:24:26;12.50;99.90
3275;DHT22;1649;53.672;10.064;2023-05-07T10:26:55;12.70;99.90
3275;DHT22;1649;53.672;10.064;2023-05-07T10:29:32;12.70;99.90
3275;DHT22;1649;53.672;10.064;2023-05-07T10:34:34;12.90;99.90
3275;DHT22;1649;53.672;10.064;2023-05-07T10:37:02;13.20;99.90
3275;DHT22;1649;53.672;10.064;2023-05-07T10:39:28;13.30;99.90
3275;DHT22;1649;53.672;10.064;2023-05-07T10:41:54;13.00;99.90
3275;DHT22;1649;53.672;10.064;2023-05-07T10:44:27;12.90;99.90
3275;DHT22;1649;53.672;10.064;2023-05-07T10:47:11;13.10;99.90
3275;DHT22;1649;53.672;10.064;2023-05-07T10:54:39;13.90;99.90
3275;DHT22;1649;53.672;10.064;2023-05-07T10:57:36;13.90;99.90
3275;DHT22;1649;53.672;10.064;2023-05-07T11:00:03;14.00;99.90
3275;DHT22;1649;53.672;10.064;2023-05-07T11:05:30;14.20;99.90
3275;DHT22;1649;53.672;10.064;2023-05-07T11:08:01;14.20;99.90
3275;DHT22;1649;53.672;10.064;2023-05-07T11:10:54;14.20;99.90
3275;DHT22;1649;53.672;10.064;2023-05-07T11:13:49;14.30;99.90
3275;DHT22;1649;53.672;10.064;2023-05-07T11:16:20;14.30;99.90
3275;DHT22;1649;53.672;10.064;2023-05-07T11:18:54;14.60;99.90
3275;DHT22;1649;53.672;10.064;2023-05-07T11:24:02;14.60;99.90
3275;DHT22;1649;53.672;10.064;2023-05-07T11:26:30;15.10;99.90
3275;DHT22;1649;53.672;10.064;2023-05-07T11:28:57;15.10;99.90
3275;DHT22;1649;53.672;10.064;2023-05-07T11:31:24;15.10;99.90
3275;DHT22;1649;53.672;10.064;2023-05-07T11:33:51;14.80;99.90
3275;DHT22;1649;53.672;10.064;2023-05-07T11:36:18;14.80;99.90
3275;DHT22;1649;53.672;10.064;2023-05-07T11:38:44;15.10;99.90
3275;DHT22;1649;53.672;10.064;2023-05-07T11:41:09;14.90;99.90
3275;DHT22;1649;53.672;10.064;2023-05-07T11:43:35;15.00;99.90
3275;DHT22;1649;53.672;10.064;2023-05-07T11:46:09;15.20;99.90
3275;DHT22;1649;53.672;10.064;2023-05-07T11:48:35;15.00;99.90
3275;DHT22;1649;53.672;10.064;2023-05-07T11:51:03;15.10;99.90
3275;DHT22;1649;53.672;10.064;2023-05-07T11:53:39;15.10;99.90
3275;DHT22;1649;53.672;10.064;2023-05-07T11:56:15;15.40;99.90
3275;DHT22;1649;53.672;10.064;2023-05-07T11:58:41;15.60;99.90
3275;DHT22;1649;53.672;10.064;2023-05-07T12:01:08;15.60;99.90
3275;DHT22;1649;53.672;10.064;2023-05-07T12:03:35;15.40;99.90
3275;DHT22;1649;53.672;10.064;2023-05-07T12:06:02;15.30;99.90
3275;DHT22;1649;53.672;10.064;2023-05-07T12:08:28;15.40;99.90
3275;DHT22;1649;53.672;10.064;2023-05-07T12:10:53;15.40;99.90
3275;DHT22;1649;53.672;10.064;2023-05-07T12:13:23;15.10;99.90
3275;DHT22;1649;53.672;10.064;2023-05-07T12:15:52;15.10;99.90
3275;DHT22;1649;53.672;10.064;2023-05-07T12:18:18;15.30;99.90
3275;DHT22;1649;53.672;10.064;2023-05-07T12:20:45;15.70;99.90
3275;DHT22;1649;53.672;10.064;2023-05-07T12:23:11;15.40;99.90
3275;DHT22;1649;53.672;10.064;2023-05-07T12:25:38;15.40;99.90
3275;DHT22;1649;53.672;10.064;2023-05-07T12:28:04;15.60;99.90
3275;DHT22;1649;53.672;10.064;2023-05-07T12:30:39;15.90;99.90
3275;DHT22;1649;53.672;10.064;2023-05-07T12:33:05;15.90;99.90
3275;DHT22;1649;53.672;10.064;2023-05-07T12:35:32;16.00;99.90
3275;DHT22;1649;53.672;10.064;2023-05-07T12:38:01;15.60;99.90
3275;DHT22;1649;53.672;10.064;2023-05-07T12:43:02;15.80;99.90
3275;DHT22;1649;53.672;10.064;2023-05-07T12:45:27;15.90;99.90
3275;DHT22;1649;53.672;10.064;2023-05-07T12:47:53;15.90;99.90
3275;DHT22;1649;53.672;10.064;2023-05-07T12:50:18;16.00;99.90
3275;DHT22;1649;53.672;10.064;2023-05-07T12:52:45;15.90;99.90
3275;DHT22;1649;53.672;10.064;2023-05-07T12:55:14;16.20;99.90
3275;DHT22;1649;53.672;10.064;2023-05-07T12:57:42;16.10;99.90
3275;DHT22;1649;53.672;10.064;2023-05-07T13:00:09;16.30;99.90
3275;DHT22;1649;53.672;10.064;2023-05-07T13:02:38;16.50;99.90
3275;DHT22;1649;53.672;10.064;2023-05-07T13:05:04;16.50;99.90
3275;DHT22;1649;53.672;10.064;2023-05-07T13:07:30;16.40;99.90
3275;DHT22;1649;53.672;10.064;2023-05-07T13:09:55;16.50;99.90
3275;DHT22;1649;53.672;10.064;2023-05-07T13:12:21;16.70;99.90
3275;DHT22;1649;53.672;10.064;2023-05-07T13:14:46;16.70;99.90
3275;DHT22;1649;53.672;10.064;2023-05-07T13:17:12;16.80;99.90
3275;DHT22;1649;53.672;10.064;2023-05-07T13:19:37;17.20;99.90
3275;DHT22;1649;53.672;10.064;2023-05-07T13:22:03;17.00;99.90
3275;DHT22;1649;53.672;10.064;2023-05-07T13:24:29;16.90;99.90
3275;DHT22;1649;53.672;10.064;2023-05-07T13:26:55;16.50;99.70
3275;DHT22;1649;53.672;10.064;2023-05-07T13:29:20;16.40;99.90
3275;DHT22;1649;53.672;10.064;2023-05-07T13:31:54;16.30;99.90
3275;DHT22;1649;53.672;10.064;2023-05-07T13:34:19;16.20;99.90
3275;DHT22;1649;53.672;10.064;2023-05-07T13:36:45;16.10;99.90
3275;DHT22;1649;53.672;10.064;2023-05-07T13:39:10;16.10;99.90
3275;DHT22;1649;53.672;10.064;2023-05-07T13:41:36;16.10;99.90
3275;DHT22;1649;53.672;10.064;2023-05-07T13:44:01;16.20;99.90
3275;DHT22;1649;53.672;10.064;2023-05-07T13:46:27;16.50;99.90
3275;DHT22;1649;53.672;10.064;2023-05-07T13:48:52;16.70;99.90
3275;DHT22;1649;53.672;10.064;2023-05-07T13:51:17;16.90;99.90
3275;DHT22;1649;53.672;10.064;2023-05-07T13:53:43;17.10;99.90
3275;DHT22;1649;53.672;10.064;2023-05-07T13:56:09;16.90;99.80
3275;DHT22;1649;53.672;10.064;2023-05-07T13:58:34;16.80;99.90
3275;DHT22;1649;53.672;10.064;2023-05-07T14:01:01;16.50;98.80
3275;DHT22;1649;53.672;10.064;2023-05-07T14:03:27;16.50;99.70
3275;DHT22;1649;53.672;10.064;2023-05-07T14:05:52;16.70;99.90
3275;DHT22;1649;53.672;10.064;2023-05-07T14:08:18;16.70;99.90
3275;DHT22;1649;53.672;10.064;2023-05-07T14:10:45;16.30;98.80
3275;DHT22;1649;53.672;10.064;2023-05-07T14:13:11;16.20;99.20
3275;DHT22;1649;53.672;10.064;2023-05-07T14:15:37;16.20;99.90
3275;DHT22;1649;53.672;10.064;2023-05-07T14:18:02;16.20;99.90
3275;DHT22;1649;53.672;10.064;2023-05-07T14:20:28;16.30;99.90
3275;DHT22;1649;53.672;10.064;2023-05-07T14:22:55;16.30;99.90
3275;DHT22;1649;53.672;10.064;2023-05-07T14:25:21;16.40;99.90
3275;DHT22;1649;53.672;10.064;2023-05-07T14:27:46;16.20;99.90
3275;DHT22;1649;53.672;10.064;2023-05-07T14:30:12;16.10;99.90
3275;DHT22;1649;53.672;10.064;2023-05-07T14:32:37;16.10;99.90
3275;DHT22;1649;53.672;10.064;2023-05-07T14:35:03;16.20;99.90
3275;DHT22;1649;53.672;10.064;2023-05-07T14:37:29;16.30;99.90
3275;DHT22;1649;53.672;10.064;2023-05-07T14:39:54;16.50;99.90
3275;DHT22;1649;53.672;10.064;2023-05-07T14:42:20;16.70;99.90
3275;DHT22;1649;53.672;10.064;2023-05-07T14:44:46;16.80;98.50
3275;DHT22;1649;53.672;10.064;2023-05-07T14:47:13;16.80;98.10
3275;DHT22;1649;53.672;10.064;2023-05-07T14:49:38;16.90;99.20
3275;DHT22;1649;53.672;10.064;2023-05-07T14:52:04;17.00;99.50
3275;DHT22;1649;53.672;10.064;2023-05-07T14:54:33;17.00;99.40
3275;DHT22;1649;53.672;10.064;2023-05-07T14:56:59;17.00;98.90
3275;DHT22;1649;53.672;10.064;2023-05-07T14:59:25;16.90;98.20
3275;DHT22;1649;53.672;10.064;2023-05-07T15:01:51;16.90;99.30
3275;DHT22;1649;53.672;10.064;2023-05-07T15:04:16;17.20;99.50
3275;DHT22;1649;53.672;10.064;2023-05-07T15:06:42;17.30;99.90
3275;DHT22;1649;53.672;10.064;2023-05-07T15:09:07;17.30;98.80
3275;DHT22;1649;53.672;10.064;2023-05-07T15:11:34;17.00;98.00
3275;DHT22;1649;53.672;10.064;2023-05-07T15:13:59;16.70;98.20
3275;DHT22;1649;53.672;10.064;2023-05-07T15:16:25;16.60;99.60
3275;DHT22;1649;53.672;10.064;2023-05-07T15:18:50;16.50;98.90
3275;DHT22;1649;53.672;10.064;2023-05-07T15:21:16;16.40;99.90
3275;DHT22;1649;53.672;10.064;2023-05-07T15:23:42;16.20;98.50
3275;DHT22;1649;53.672;10.064;2023-05-07T15:26:09;16.30;99.90
3275;DHT22;1649;53.672;10.064;2023-05-07T15:28:35;16.20;99.90
3275;DHT22;1649;53.672;10.064;2023-05-07T15:31:00;16.10;99.90
3275;DHT22;1649;53.672;10.064;2023-05-07T15:33:26;16.00;99.90
3275;DHT22;1649;53.672;10.064;2023-05-07T15:35:51;16.00;99.90
3275;DHT22;1649;53.672;10.064;2023-05-07T15:38:17;15.90;99.90
3275;DHT22;1649;53.672;10.064;2023-05-07T15:40:42;15.90;99.90
3275;DHT22;1649;53.672;10.064;2023-05-07T15:43:09;15.80;99.90
3275;DHT22;1649;53.672;10.064;2023-05-07T15:45:41;15.80;99.90
3275;DHT22;1649;53.672;10.064;2023-05-07T15:48:08;15.70;99.90
3275;DHT22;1649;53.672;10.064;2023-05-07T15:50:34;15.60;99.90
3275;DHT22;1649;53.672;10.064;2023-05-07T15:53:00;15.50;99.90
3275;DHT22;1649;53.672;10.064;2023-05-07T15:55:25;15.50;99.90
3275;DHT22;1649;53.672;10.064;2023-05-07T15:57:51;15.50;99.90
3275;DHT22;1649;53.672;10.064;2023-05-07T16:00:17;15.40;99.90
3275;DHT22;1649;53.672;10.064;2023-05-07T16:02:43;15.50;99.90